sensor_id;sensor_type;location;lat;lon;timestamp;temperature;humidity
5264;DHT22;2654;47.958;13.614;2022-07-18T00:01:27;15.10;1.00
5264;DHT22;2654;47.958;13.614;2022-07-18T00:03:54;15.30;99.90
5264;DHT22;2654;47.958;13.614;2022-07-18T00:06:21;15.70;99.90
5264;DHT22;2654;47.958;13.614;2022-07-18T00:08:49;15.90;99.90
5264;DHT22;2654;47.958;13.614;2022-07-18T00:11:16;15.90;99.90
5264;DHT22;2654;47.958;13.614;2022-07-18T00:13:44;15.90;99.90
5264;DHT22;2654;47.958;13.614;2022-07-18T00:16:11;15.80;1.00
5264;DHT22;2654;47.958;13.614;2022-07-18T00:18:40;15.50;99.90
5264;DHT22;2654;47.958;13.614;2022-07-18T00:21:07;15.40;1.00
5264;DHT22;2654;47.958;13.614;2022-07-18T00:23:35;15.70;1.00
5264;DHT22;2654;47.958;13.614;2022-07-18T00:26:02;15.80;99.90
5264;DHT22;2654;47.958;13.614;2022-07-18T00:28:30;15.80;23.60
5264;DHT22;2654;47.958;13.614;2022-07-18T00:30:57;15.70;1.00
5264;DHT22;2654;47.958;13.614;2022-07-18T00:33:24;15.80;1.00
5264;DHT22;2654;47.958;13.614;2022-07-18T00:35:53;16.00;1.00
5264;DHT22;2654;47.958;13.614;2022-07-18T00:38:20;16.10;1.00
5264;DHT22;2654;47.958;13.614;2022-07-18T00:40:48;16.00;1.00
5264;DHT22;2654;47.958;13.614;2022-07-18T00:43:15;15.60;1.00
5264;DHT22;2654;47.958;13.614;2022-07-18T00:45:44;15.40;1.00
5264;DHT22;2654;47.958;13.614;2022-07-18T00:48:12;15.00;1.00
5264;DHT22;2654;47.958;13.614;2022-07-18T00:50:41;14.80;1.00
5264;DHT22;2654;47.958;13.614;2022-07-18T00:53:10;14.70;99.90
5264;DHT22;2654;47.958;13.614;2022-07-18T00:55:38;14.50;1.00
5264;DHT22;2654;47.958;13.614;2022-07-18T00:58:07;14.60;99.90
5264;DHT22;2654;47.958;13.614;2022-07-18T01:00:35;14.70;99.90
5264;DHT22;2654;47.958;13.614;2022-07-18T01:03:28;14.80;99.90
5264;DHT22;2654;47.958;13.614;2022-07-18T01:05:56;14.90;1.00
5264;DHT22;2654;47.958;13.614;2022-07-18T01:08:24;15.00;99.90
5264;DHT22;2654;47.958;13.614;2022-07-18T01:10:52;15.00;99.90
5264;DHT22;2654;47.958;13.614;2022-07-18T01:13:20;15.00;99.90
5264;DHT22;2654;47.958;13.614;2022-07-18T01:15:48;15.20;99.90
5264;DHT22;2654;47.958;13.614;2022-07-18T01:18:15;15.10;1.00
5264;DHT22;2654;47.958;13.614;2022-07-18T01:20:44;15.20;1.00
5264;DHT22;2654;47.958;13.614;2022-07-18T01:23:11;15.20;99.90
5264;DHT22;2654;47.958;13.614;2022-07-18T01:25:39;15.00;99.90
5264;DHT22;2654;47.958;13.614;2022-07-18T01:28:06;15.10;1.00
5264;DHT22;2654;47.958;13.614;2022-07-18T01:30:33;14.90;1.00
5264;DHT22;2654;47.958;13.614;2022-07-18T01:33:02;14.70;99.90
5264;DHT22;2654;47.958;13.614;2022-07-18T01:35:30;14.60;99.90
5264;DHT22;2654;47.958;13.614;2022-07-18T01:38:01;14.60;1.00
5264;DHT22;2654;47.958;13.614;2022-07-18T01:40:30;14.60;99.90
5264;DHT22;2654;47.958;13.614;2022-07-18T01:42:57;14.50;1.00
5264;DHT22;2654;47.958;13.614;2022-07-18T01:45:25;14.20;1.00
5264;DHT22;2654;47.958;13.614;2022-07-18T01:47:52;14.40;99.90
5264;DHT22;2654;47.958;13.614;2022-07-18T01:50:20;14.50;64.50
5264;DHT22;2654;47.958;13.614;2022-07-18T01:52:47;14.50;1.00
5264;DHT22;2654;47.958;13.614;2022-07-18T01:55:16;14.40;99.90
5264;DHT22;2654;47.958;13.614;2022-07-18T01:57:43;14.40;99.90
5264;DHT22;2654;47.958;13.614;2022-07-18T02:00:11;14.20;1.00
5264;DHT22;2654;47.958;13.614;2022-07-18T02:02:39;14.20;99.90
5264;DHT22;2654;47.958;13.614;2022-07-18T02:05:07;14.40;1.00
5264;DHT22;2654;47.958;13.614;2022-07-18T02:07:37;14.20;1.00
5264;DHT22;2654;47.958;13.614;2022-07-18T02:10:07;14.10;15.90
5264;DHT22;2654;47.958;13.614;2022-07-18T02:12:37;14.30;1.00
5264;DHT22;2654;47.958;13.614;2022-07-18T02:15:06;14.40;99.90
5264;DHT22;2654;47.958;13.614;2022-07-18T02:17:34;14.30;33.10
5264;DHT22;2654;47.958;13.614;2022-07-18T02:20:03;14.20;99.90
5264;DHT22;2654;47.958;13.614;2022-07-18T02:22:31;14.10;99.90
5264;DHT22;2654;47.958;13.614;2022-07-18T02:24:58;14.20;99.90
5264;DHT22;2654;47.958;13.614;2022-07-18T02:27:26;14.10;99.90
5264;DHT22;2654;47.958;13.614;2022-07-18T02:29:54;14.20;1.00
5264;DHT22;2654;47.958;13.614;2022-07-18T02:32:22;14.30;99.90
5264;DHT22;2654;47.958;13.614;2022-07-18T02:34:49;14.40;1.00
5264;DHT22;2654;47.958;13.614;2022-07-18T02:37:17;14.20;1.00
5264;DHT22;2654;47.958;13.614;2022-07-18T02:39:44;14.00;99.90
5264;DHT22;2654;47.958;13.614;2022-07-18T02:42:11;13.80;1.00
5264;DHT22;2654;47.958;13.614;2022-07-18T02:44:39;13.80;99.90
5264;DHT22;2654;47.958;13.614;2022-07-18T02:47:08;13.70;35.90
5264;DHT22;2654;47.958;13.614;2022-07-18T02:49:35;13.40;1.00
5264;DHT22;2654;47.958;13.614;2022-07-18T02:52:08;13.20;1.00
5264;DHT22;2654;47.958;13.614;2022-07-18T02:54:36;13.30;1.00
5264;DHT22;2654;47.958;13.614;2022-07-18T02:57:05;13.50;1.00
5264;DHT22;2654;47.958;13.614;2022-07-18T02:59:33;13.60;1.00
5264;DHT22;2654;47.958;13.614;2022-07-18T03:02:00;13.60;99.90
5264;DHT22;2654;47.958;13.614;2022-07-18T03:04:29;13.70;34.30
5264;DHT22;2654;47.958;13.614;2022-07-18T03:06:56;13.60;1.00
5264;DHT22;2654;47.958;13.614;2022-07-18T03:09:24;13.70;1.00
5264;DHT22;2654;47.958;13.614;2022-07-18T03:11:53;13.70;99.90
5264;DHT22;2654;47.958;13.614;2022-07-18T03:14:21;13.70;8.10
5264;DHT22;2654;47.958;13.614;2022-07-18T03:16:48;13.50;1.00
5264;DHT22;2654;47.958;13.614;2022-07-18T03:19:16;13.30;99.90
5264;DHT22;2654;47.958;13.614;2022-07-18T03:21:45;13.20;99.90
5264;DHT22;2654;47.958;13.614;2022-07-18T03:24:12;13.10;99.90
5264;DHT22;2654;47.958;13.614;2022-07-18T03:26:41;13.00;1.00
5264;DHT22;2654;47.958;13.614;2022-07-18T03:29:09;13.00;1.00
5264;DHT22;2654;47.958;13.614;2022-07-18T03:31:36;13.10;1.00
5264;DHT22;2654;47.958;13.614;2022-07-18T03:34:04;13.20;1.00
5264;DHT22;2654;47.958;13.614;2022-07-18T03:36:31;13.10;1.00
5264;DHT22;2654;47.958;13.614;2022-07-18T03:39:00;13.00;1.00
5264;DHT22;2654;47.958;13.614;2022-07-18T03:41:27;12.80;1.00
5264;DHT22;2654;47.958;13.614;2022-07-18T03:43:55;12.80;1.00
5264;DHT22;2654;47.958;13.614;2022-07-18T03:46:22;13.10;1.00
5264;DHT22;2654;47.958;13.614;2022-07-18T03:48:50;13.20;1.00
5264;DHT22;2654;47.958;13.614;2022-07-18T03:51:17;13.10;1.00
5264;DHT22;2654;47.958;13.614;2022-07-18T03:53:44;13.00;1.00
5264;DHT22;2654;47.958;13.614;2022-07-18T03:56:13;13.30;1.00
5264;DHT22;2654;47.958;13.614;2022-07-18T03:58:41;13.20;1.00
5264;DHT22;2654;47.958;13.614;2022-07-18T04:01:09;13.30;1.00
5264;DHT22;2654;47.958;13.614;2022-07-18T04:03:37;13.30;1.00
5264;DHT22;2654;47.958;13.614;2022-07-18T04:06:04;13.50;1.00
5264;DHT22;2654;47.958;13.614;2022-07-18T04:08:32;13.40;1.00
5264;DHT22;2654;47.958;13.614;2022-07-18T04:10:59;13.30;1.00
5264;DHT22;2654;47.958;13.614;2022-07-18T04:13:28;13.40;1.00
5264;DHT22;2654;47.958;13.614;2022-07-18T04:15:55;13.50;1.00
5264;DHT22;2654;47.958;13.614;2022-07-18T04:18:22;13.60;1.00
5264;DHT22;2654;47.958;13.614;2022-07-18T04:20:50;13.70;1.00
5264;DHT22;2654;47.958;13.614;2022-07-18T04:23:17;13.50;1.00
5264;DHT22;2654;47.958;13.614;2022-07-18T04:25:45;13.40;1.00
5264;DHT22;2654;47.958;13.614;2022-07-18T04:28:13;13.50;1.00
5264;DHT22;2654;47.958;13.614;2022-07-18T04:30:43;13.80;1.00
5264;DHT22;2654;47.958;13.614;2022-07-18T04:33:11;14.30;1.00
5264;DHT22;2654;47.958;13.614;2022-07-18T04:35:39;14.50;99.90
5264;DHT22;2654;47.958;13.614;2022-07-18T04:38:08;14.80;1.00
5264;DHT22;2654;47.958;13.614;2022-07-18T04:40:36;14.90;99.90
5264;DHT22;2654;47.958;13.614;2022-07-18T04:43:04;15.10;99.90
5264;DHT22;2654;47.958;13.614;2022-07-18T04:45:32;15.30;99.90
5264;DHT22;2654;47.958;13.614;2022-07-18T04:48:04;15.40;15.90
5264;DHT22;2654;47.958;13.614;2022-07-18T04:50:31;15.60;99.90
5264;DHT22;2654;47.958;13.614;2022-07-18T04:52:59;15.80;99.90
5264;DHT22;2654;47.958;13.614;2022-07-18T04:55:26;16.00;99.90
5264;DHT22;2654;47.958;13.614;2022-07-18T04:57:54;16.20;99.90
5264;DHT22;2654;47.958;13.614;2022-07-18T05:00:23;16.30;99.90
5264;DHT22;2654;47.958;13.614;2022-07-18T05:02:52;16.40;99.90
5264;DHT22;2654;47.958;13.614;2022-07-18T05:05:23;16.20;1.00
5264;DHT22;2654;47.958;13.614;2022-07-18T05:07:51;16.30;1.00
5264;DHT22;2654;47.958;13.614;2022-07-18T05:10:20;16.50;1.00
5264;DHT22;2654;47.958;13.614;2022-07-18T05:12:50;16.70;99.90
5264;DHT22;2654;47.958;13.614;2022-07-18T05:15:19;16.90;99.90
5264;DHT22;2654;47.958;13.614;2022-07-18T05:17:47;17.10;99.90
5264;DHT22;2654;47.958;13.614;2022-07-18T05:20:16;17.20;99.90
5264;DHT22;2654;47.958;13.614;2022-07-18T05:22:45;17.20;99.90
5264;DHT22;2654;47.958;13.614;2022-07-18T05:25:13;17.20;99.90
5264;DHT22;2654;47.958;13.614;2022-07-18T05:27:41;17.10;1.00
5264;DHT22;2654;47.958;13.614;2022-07-18T05:30:10;16.80;1.00
5264;DHT22;2654;47.958;13.614;2022-07-18T05:32:38;16.60;1.00
5264;DHT22;2654;47.958;13.614;2022-07-18T05:35:06;16.70;99.90
5264;DHT22;2654;47.958;13.614;2022-07-18T05:37:34;16.90;99.90
5264;DHT22;2654;47.958;13.614;2022-07-18T05:40:07;17.10;99.90
5264;DHT22;2654;47.958;13.614;2022-07-18T05:42:35;17.30;99.90
5264;DHT22;2654;47.958;13.614;2022-07-18T05:45:03;17.60;1.00
5264;DHT22;2654;47.958;13.614;2022-07-18T05:47:31;18.00;1.00
5264;DHT22;2654;47.958;13.614;2022-07-18T05:49:58;18.20;1.00
5264;DHT22;2654;47.958;13.614;2022-07-18T05:52:25;18.30;99.90
5264;DHT22;2654;47.958;13.614;2022-07-18T05:54:52;18.40;1.00
5264;DHT22;2654;47.958;13.614;2022-07-18T05:57:21;18.60;99.90
5264;DHT22;2654;47.958;13.614;2022-07-18T05:59:48;18.70;99.90
5264;DHT22;2654;47.958;13.614;2022-07-18T06:02:16;18.90;1.00
5264;DHT22;2654;47.958;13.614;2022-07-18T06:04:43;19.00;1.00
5264;DHT22;2654;47.958;13.614;2022-07-18T06:07:10;18.70;1.00
5264;DHT22;2654;47.958;13.614;2022-07-18T06:09:38;19.00;1.00
5264;DHT22;2654;47.958;13.614;2022-07-18T06:12:06;19.00;1.00
5264;DHT22;2654;47.958;13.614;2022-07-18T06:14:35;19.00;99.90
5264;DHT22;2654;47.958;13.614;2022-07-18T06:17:02;19.30;99.90
5264;DHT22;2654;47.958;13.614;2022-07-18T06:19:29;19.50;99.90
5264;DHT22;2654;47.958;13.614;2022-07-18T06:21:57;19.80;99.90
5264;DHT22;2654;47.958;13.614;2022-07-18T06:24:25;19.90;99.90
5264;DHT22;2654;47.958;13.614;2022-07-18T06:26:52;20.10;99.90
5264;DHT22;2654;47.958;13.614;2022-07-18T06:29:20;20.30;99.90
5264;DHT22;2654;47.958;13.614;2022-07-18T06:31:48;20.50;99.90
5264;DHT22;2654;47.958;13.614;2022-07-18T06:34:16;20.60;99.90
5264;DHT22;2654;47.958;13.614;2022-07-18T06:36:43;20.70;99.90
5264;DHT22;2654;47.958;13.614;2022-07-18T06:39:10;20.70;99.90
5264;DHT22;2654;47.958;13.614;2022-07-18T06:41:38;20.80;99.90
5264;DHT22;2654;47.958;13.614;2022-07-18T06:44:06;20.90;99.90
5264;DHT22;2654;47.958;13.614;2022-07-18T06:46:33;20.70;99.90
5264;DHT22;2654;47.958;13.614;2022-07-18T06:49:03;20.70;99.90
5264;DHT22;2654;47.958;13.614;2022-07-18T06:51:31;20.30;99.90
5264;DHT22;2654;47.958;13.614;2022-07-18T06:53:58;20.30;99.90
5264;DHT22;2654;47.958;13.614;2022-07-18T06:56:26;20.20;99.90
5264;DHT22;2654;47.958;13.614;2022-07-18T06:58:53;20.10;99.90
5264;DHT22;2654;47.958;13.614;2022-07-18T07:01:20;20.00;99.90
5264;DHT22;2654;47.958;13.614;2022-07-18T07:03:48;20.10;99.90
5264;DHT22;2654;47.958;13.614;2022-07-18T07:06:17;20.40;99.90
5264;DHT22;2654;47.958;13.614;2022-07-18T07:08:44;20.70;99.90
5264;DHT22;2654;47.958;13.614;2022-07-18T07:11:12;21.10;99.90
5264;DHT22;2654;47.958;13.614;2022-07-18T07:13:40;21.50;99.90
5264;DHT22;2654;47.958;13.614;2022-07-18T07:16:07;21.80;99.90
5264;DHT22;2654;47.958;13.614;2022-07-18T07:18:35;21.80;99.90
5264;DHT22;2654;47.958;13.614;2022-07-18T07:21:02;21.50;99.90
5264;DHT22;2654;47.958;13.614;2022-07-18T07:23:31;21.20;99.90
5264;DHT22;2654;47.958;13.614;2022-07-18T07:25:59;21.40;99.90
5264;DHT22;2654;47.958;13.614;2022-07-18T07:28:26;22.00;99.90
5264;DHT22;2654;47.958;13.614;2022-07-18T07:30:53;22.10;99.90
5264;DHT22;2654;47.958;13.614;2022-07-18T07:33:21;22.20;99.90
5264;DHT22;2654;47.958;13.614;2022-07-18T07:35:48;22.30;99.90
5264;DHT22;2654;47.958;13.614;2022-07-18T07:38:15;22.30;99.90
5264;DHT22;2654;47.958;13.614;2022-07-18T07:40:47;22.20;99.90
5264;DHT22;2654;47.958;13.614;2022-07-18T07:43:16;21.90;99.90
5264;DHT22;2654;47.958;13.614;2022-07-18T07:45:46;22.00;99.90
5264;DHT22;2654;47.958;13.614;2022-07-18T07:48:14;22.00;99.90
5264;DHT22;2654;47.958;13.614;2022-07-18T07:50:42;22.40;99.90
5264;DHT22;2654;47.958;13.614;2022-07-18T07:53:09;22.60;99.90
5264;DHT22;2654;47.958;13.614;2022-07-18T07:55:37;22.60;99.90
5264;DHT22;2654;47.958;13.614;2022-07-18T07:58:05;22.60;99.90
5264;DHT22;2654;47.958;13.614;2022-07-18T08:00:33;22.60;99.90
5264;DHT22;2654;47.958;13.614;2022-07-18T08:03:02;22.70;96.70
5264;DHT22;2654;47.958;13.614;2022-07-18T08:05:32;22.30;93.10
5264;DHT22;2654;47.958;13.614;2022-07-18T08:08:00;22.30;89.50
5264;DHT22;2654;47.958;13.614;2022-07-18T08:10:28;22.50;91.00
5264;DHT22;2654;47.958;13.614;2022-07-18T08:12:56;22.90;92.30
5264;DHT22;2654;47.958;13.614;2022-07-18T08:15:25;23.00;88.70
5264;DHT22;2654;47.958;13.614;2022-07-18T08:17:53;23.10;93.50
5264;DHT22;2654;47.958;13.614;2022-07-18T08:20:21;23.10;82.00
5264;DHT22;2654;47.958;13.614;2022-07-18T08:22:57;22.90;78.00
5264;DHT22;2654;47.958;13.614;2022-07-18T08:25:25;22.60;82.50
5264;DHT22;2654;47.958;13.614;2022-07-18T08:27:52;22.60;79.40
5264;DHT22;2654;47.958;13.614;2022-07-18T08:30:20;22.70;78.50
5264;DHT22;2654;47.958;13.614;2022-07-18T08:32:49;22.60;77.50
5264;DHT22;2654;47.958;13.614;2022-07-18T08:35:17;22.50;76.20
5264;DHT22;2654;47.958;13.614;2022-07-18T08:37:45;22.40;78.30
5264;DHT22;2654;47.958;13.614;2022-07-18T08:40:13;22.50;76.70
5264;DHT22;2654;47.958;13.614;2022-07-18T08:42:40;22.70;76.30
5264;DHT22;2654;47.958;13.614;2022-07-18T08:45:08;23.20;80.70
5264;DHT22;2654;47.958;13.614;2022-07-18T08:47:36;23.50;80.50
5264;DHT22;2654;47.958;13.614;2022-07-18T08:50:06;23.70;80.30
5264;DHT22;2654;47.958;13.614;2022-07-18T08:52:34;23.60;79.80
5264;DHT22;2654;47.958;13.614;2022-07-18T08:55:04;23.70;76.70
5264;DHT22;2654;47.958;13.614;2022-07-18T08:57:32;23.50;76.10
5264;DHT22;2654;47.958;13.614;2022-07-18T09:00:00;23.40;76.20
5264;DHT22;2654;47.958;13.614;2022-07-18T09:02:28;23.40;75.70
5264;DHT22;2654;47.958;13.614;2022-07-18T09:04:55;23.70;75.90
5264;DHT22;2654;47.958;13.614;2022-07-18T09:07:26;23.90;79.70
5264;DHT22;2654;47.958;13.614;2022-07-18T09:09:57;24.00;72.40
5264;DHT22;2654;47.958;13.614;2022-07-18T09:12:25;24.10;67.30
5264;DHT22;2654;47.958;13.614;2022-07-18T09:14:53;24.40;67.90
5264;DHT22;2654;47.958;13.614;2022-07-18T09:17:23;24.80;68.60
5264;DHT22;2654;47.958;13.614;2022-07-18T09:19:59;24.60;64.30
5264;DHT22;2654;47.958;13.614;2022-07-18T09:22:29;24.40;60.00
5264;DHT22;2654;47.958;13.614;2022-07-18T09:25:00;24.20;59.40
5264;DHT22;2654;47.958;13.614;2022-07-18T09:27:29;24.50;60.60
5264;DHT22;2654;47.958;13.614;2022-07-18T09:30:13;24.70;61.20
5264;DHT22;2654;47.958;13.614;2022-07-18T09:32:43;24.70;59.80
5264;DHT22;2654;47.958;13.614;2022-07-18T09:35:13;24.60;58.70
5264;DHT22;2654;47.958;13.614;2022-07-18T09:37:53;24.60;58.60
5264;DHT22;2654;47.958;13.614;2022-07-18T09:40:22;24.60;58.30
5264;DHT22;2654;47.958;13.614;2022-07-18T09:42:50;24.60;57.80
5264;DHT22;2654;47.958;13.614;2022-07-18T09:45:26;24.50;56.80
5264;DHT22;2654;47.958;13.614;2022-07-18T09:47:57;24.70;57.10
5264;DHT22;2654;47.958;13.614;2022-07-18T09:50:30;24.80;57.60
5264;DHT22;2654;47.958;13.614;2022-07-18T09:53:13;24.60;56.40
5264;DHT22;2654;47.958;13.614;2022-07-18T09:55:46;24.60;55.50
5264;DHT22;2654;47.958;13.614;2022-07-18T09:58:16;24.40;54.80
5264;DHT22;2654;47.958;13.614;2022-07-18T10:00:45;24.60;55.30
5264;DHT22;2654;47.958;13.614;2022-07-18T10:03:13;24.90;56.90
5264;DHT22;2654;47.958;13.614;2022-07-18T10:05:41;25.10;57.60
5264;DHT22;2654;47.958;13.614;2022-07-18T10:08:12;25.30;57.70
5264;DHT22;2654;47.958;13.614;2022-07-18T10:10:41;25.20;57.50
5264;DHT22;2654;47.958;13.614;2022-07-18T10:13:08;25.10;56.30
5264;DHT22;2654;47.958;13.614;2022-07-18T10:15:38;25.10;55.50
5264;DHT22;2654;47.958;13.614;2022-07-18T10:18:11;25.10;55.80
5264;DHT22;2654;47.958;13.614;2022-07-18T10:23:19;25.60;57.90
5264;DHT22;2654;47.958;13.614;2022-07-18T10:26:10;25.80;57.80
5264;DHT22;2654;47.958;13.614;2022-07-18T10:32:04;26.00;57.90
5264;DHT22;2654;47.958;13.614;2022-07-18T10:34:35;26.20;59.40
5264;DHT22;2654;47.958;13.614;2022-07-18T10:37:10;26.30;58.50
5264;DHT22;2654;47.958;13.614;2022-07-18T10:39:40;26.60;59.30
5264;DHT22;2654;47.958;13.614;2022-07-18T10:42:19;26.70;59.30
5264;DHT22;2654;47.958;13.614;2022-07-18T10:44:50;26.70;58.90
5264;DHT22;2654;47.958;13.614;2022-07-18T10:47:19;26.80;59.30
5264;DHT22;2654;47.958;13.614;2022-07-18T10:50:05;26.60;56.90
5264;DHT22;2654;47.958;13.614;2022-07-18T10:53:06;26.70;57.50
5264;DHT22;2654;47.958;13.614;2022-07-18T10:55:35;26.70;56.60
5264;DHT22;2654;47.958;13.614;2022-07-18T10:58:18;26.90;56.70
5264;DHT22;2654;47.958;13.614;2022-07-18T11:00:49;27.00;56.50
5264;DHT22;2654;47.958;13.614;2022-07-18T11:03:27;26.60;55.70
5264;DHT22;2654;47.958;13.614;2022-07-18T11:05:57;26.60;55.00
5264;DHT22;2654;47.958;13.614;2022-07-18T11:08:24;26.70;55.30
5264;DHT22;2654;47.958;13.614;2022-07-18T11:11:06;27.00;56.20
5264;DHT22;2654;47.958;13.614;2022-07-18T11:13:35;27.10;56.60
5264;DHT22;2654;47.958;13.614;2022-07-18T11:16:04;27.10;55.00
5264;DHT22;2654;47.958;13.614;2022-07-18T11:18:34;26.20;51.90
5264;DHT22;2654;47.958;13.614;2022-07-18T11:21:21;26.10;51.50
5264;DHT22;2654;47.958;13.614;2022-07-18T11:23:51;26.20;52.00
5264;DHT22;2654;47.958;13.614;2022-07-18T11:26:21;26.60;53.60
5264;DHT22;2654;47.958;13.614;2022-07-18T11:28:58;26.10;51.60
5264;DHT22;2654;47.958;13.614;2022-07-18T11:31:26;26.10;52.40
5264;DHT22;2654;47.958;13.614;2022-07-18T11:33:54;26.30;52.50
5264;DHT22;2654;47.958;13.614;2022-07-18T11:36:28;26.50;53.00
5264;DHT22;2654;47.958;13.614;2022-07-18T11:38:57;26.30;53.00
5264;DHT22;2654;47.958;13.614;2022-07-18T11:41:26;26.40;52.60
5264;DHT22;2654;47.958;13.614;2022-07-18T11:43:57;26.90;53.70
5264;DHT22;2654;47.958;13.614;2022-07-18T11:46:28;27.50;56.10
5264;DHT22;2654;47.958;13.614;2022-07-18T11:48:58;28.00;58.20
5264;DHT22;2654;47.958;13.614;2022-07-18T11:51:34;28.20;58.40
5264;DHT22;2654;47.958;13.614;2022-07-18T11:54:02;27.80;56.70
5264;DHT22;2654;47.958;13.614;2022-07-18T11:56:31;27.50;55.60
5264;DHT22;2654;47.958;13.614;2022-07-18T11:58:59;27.30;54.70
5264;DHT22;2654;47.958;13.614;2022-07-18T12:01:31;27.00;59.40
5264;DHT22;2654;47.958;13.614;2022-07-18T12:03:59;26.90;53.70
5264;DHT22;2654;47.958;13.614;2022-07-18T12:06:28;27.40;54.30
5264;DHT22;2654;47.958;13.614;2022-07-18T12:08:56;27.80;56.80
5264;DHT22;2654;47.958;13.614;2022-07-18T12:11:27;28.40;58.60
5264;DHT22;2654;47.958;13.614;2022-07-18T12:13:58;28.90;60.80
5264;DHT22;2654;47.958;13.614;2022-07-18T12:16:31;29.20;61.60
5264;DHT22;2654;47.958;13.614;2022-07-18T12:19:02;29.30;61.70
5264;DHT22;2654;47.958;13.614;2022-07-18T12:21:48;29.40;61.90
5264;DHT22;2654;47.958;13.614;2022-07-18T12:24:23;29.70;62.80
5264;DHT22;2654;47.958;13.614;2022-07-18T12:27:17;29.60;61.90
5264;DHT22;2654;47.958;13.614;2022-07-18T12:30:19;29.50;61.00
5264;DHT22;2654;47.958;13.614;2022-07-18T12:32:48;29.70;62.00
5264;DHT22;2654;47.958;13.614;2022-07-18T12:35:19;30.00;62.80
5264;DHT22;2654;47.958;13.614;2022-07-18T12:37:54;30.20;64.00
5264;DHT22;2654;47.958;13.614;2022-07-18T12:40:22;30.40;64.10
5264;DHT22;2654;47.958;13.614;2022-07-18T12:43:02;30.50;65.10
5264;DHT22;2654;47.958;13.614;2022-07-18T12:45:31;30.30;64.00
5264;DHT22;2654;47.958;13.614;2022-07-18T12:47:58;29.90;63.20
5264;DHT22;2654;47.958;13.614;2022-07-18T12:50:25;30.10;62.80
5264;DHT22;2654;47.958;13.614;2022-07-18T12:52:53;29.30;59.60
5264;DHT22;2654;47.958;13.614;2022-07-18T12:55:20;29.00;59.30
5264;DHT22;2654;47.958;13.614;2022-07-18T12:57:48;29.30;59.80
5264;DHT22;2654;47.958;13.614;2022-07-18T13:00:16;29.20;59.40
5264;DHT22;2654;47.958;13.614;2022-07-18T13:02:45;29.10;58.90
5264;DHT22;2654;47.958;13.614;2022-07-18T13:05:13;28.30;55.70
5264;DHT22;2654;47.958;13.614;2022-07-18T13:07:41;28.20;55.60
5264;DHT22;2654;47.958;13.614;2022-07-18T13:10:08;28.50;57.20
5264;DHT22;2654;47.958;13.614;2022-07-18T13:12:36;27.90;54.90
5264;DHT22;2654;47.958;13.614;2022-07-18T13:15:04;27.90;54.80
5264;DHT22;2654;47.958;13.614;2022-07-18T13:17:31;28.70;57.90
5264;DHT22;2654;47.958;13.614;2022-07-18T13:20:00;29.50;60.60
5264;DHT22;2654;47.958;13.614;2022-07-18T13:22:27;30.20;63.90
5264;DHT22;2654;47.958;13.614;2022-07-18T13:24:57;30.90;66.40
5264;DHT22;2654;47.958;13.614;2022-07-18T13:27:24;31.40;68.40
5264;DHT22;2654;47.958;13.614;2022-07-18T13:29:51;31.60;70.00
5264;DHT22;2654;47.958;13.614;2022-07-18T13:32:19;31.80;69.60
5264;DHT22;2654;47.958;13.614;2022-07-18T13:34:46;30.80;65.40
5264;DHT22;2654;47.958;13.614;2022-07-18T13:37:15;30.70;65.20
5264;DHT22;2654;47.958;13.614;2022-07-18T13:39:42;31.10;67.20
5264;DHT22;2654;47.958;13.614;2022-07-18T13:42:09;31.10;66.30
5264;DHT22;2654;47.958;13.614;2022-07-18T13:44:37;31.40;68.10
5264;DHT22;2654;47.958;13.614;2022-07-18T13:47:04;31.90;69.60
5264;DHT22;2654;47.958;13.614;2022-07-18T13:49:31;32.10;70.60
5264;DHT22;2654;47.958;13.614;2022-07-18T13:51:59;32.30;70.70
5264;DHT22;2654;47.958;13.614;2022-07-18T13:54:28;32.50;71.60
5264;DHT22;2654;47.958;13.614;2022-07-18T13:56:55;32.40;71.60
5264;DHT22;2654;47.958;13.614;2022-07-18T13:59:22;32.60;73.10
5264;DHT22;2654;47.958;13.614;2022-07-18T14:01:50;32.60;72.30
5264;DHT22;2654;47.958;13.614;2022-07-18T14:04:18;32.50;84.50
5264;DHT22;2654;47.958;13.614;2022-07-18T14:06:45;32.50;71.70
5264;DHT22;2654;47.958;13.614;2022-07-18T14:09:13;32.60;72.30
5264;DHT22;2654;47.958;13.614;2022-07-18T14:11:41;32.50;72.20
5264;DHT22;2654;47.958;13.614;2022-07-18T14:14:09;31.90;69.10
5264;DHT22;2654;47.958;13.614;2022-07-18T14:16:36;31.30;66.20
5264;DHT22;2654;47.958;13.614;2022-07-18T14:19:04;30.10;61.50
5264;DHT22;2654;47.958;13.614;2022-07-18T14:21:31;29.80;60.20
5264;DHT22;2654;47.958;13.614;2022-07-18T14:23:59;30.00;61.70
5264;DHT22;2654;47.958;13.614;2022-07-18T14:26:26;30.00;61.80
5264;DHT22;2654;47.958;13.614;2022-07-18T14:28:55;29.90;60.80
5264;DHT22;2654;47.958;13.614;2022-07-18T14:31:22;29.70;60.80
5264;DHT22;2654;47.958;13.614;2022-07-18T14:33:50;29.70;60.00
5264;DHT22;2654;47.958;13.614;2022-07-18T14:36:17;30.00;62.00
5264;DHT22;2654;47.958;13.614;2022-07-18T14:38:44;30.30;63.20
5264;DHT22;2654;47.958;13.614;2022-07-18T14:41:12;30.70;65.20
5264;DHT22;2654;47.958;13.614;2022-07-18T14:43:39;31.30;67.70
5264;DHT22;2654;47.958;13.614;2022-07-18T14:46:09;31.40;67.90
5264;DHT22;2654;47.958;13.614;2022-07-18T14:48:37;31.40;67.30
5264;DHT22;2654;47.958;13.614;2022-07-18T14:51:04;31.20;66.80
5264;DHT22;2654;47.958;13.614;2022-07-18T14:53:31;31.40;66.60
5264;DHT22;2654;47.958;13.614;2022-07-18T14:55:59;31.10;65.40
5264;DHT22;2654;47.958;13.614;2022-07-18T14:58:26;30.70;63.80
5264;DHT22;2654;47.958;13.614;2022-07-18T15:00:53;30.40;62.40
5264;DHT22;2654;47.958;13.614;2022-07-18T15:03:22;30.20;61.80
5264;DHT22;2654;47.958;13.614;2022-07-18T15:05:50;30.30;63.20
5264;DHT22;2654;47.958;13.614;2022-07-18T15:08:17;30.10;61.40
5264;DHT22;2654;47.958;13.614;2022-07-18T15:10:44;30.20;62.30
5264;DHT22;2654;47.958;13.614;2022-07-18T15:13:11;29.80;60.70
5264;DHT22;2654;47.958;13.614;2022-07-18T15:15:39;29.70;59.70
5264;DHT22;2654;47.958;13.614;2022-07-18T15:18:06;29.70;59.90
5264;DHT22;2654;47.958;13.614;2022-07-18T15:20:35;29.70;60.40
5264;DHT22;2654;47.958;13.614;2022-07-18T15:23:02;29.90;60.50
5264;DHT22;2654;47.958;13.614;2022-07-18T15:25:29;29.90;60.40
5264;DHT22;2654;47.958;13.614;2022-07-18T15:27:57;29.90;61.10
5264;DHT22;2654;47.958;13.614;2022-07-18T15:30:24;29.90;61.20
5264;DHT22;2654;47.958;13.614;2022-07-18T15:32:51;29.70;60.40
5264;DHT22;2654;47.958;13.614;2022-07-18T15:35:19;29.90;61.40
5264;DHT22;2654;47.958;13.614;2022-07-18T15:37:48;29.90;61.70
5264;DHT22;2654;47.958;13.614;2022-07-18T15:40:15;30.30;62.20
5264;DHT22;2654;47.958;13.614;2022-07-18T15:42:42;30.70;64.50
5264;DHT22;2654;47.958;13.614;2022-07-18T15:45:10;31.10;66.50
5264;DHT22;2654;47.958;13.614;2022-07-18T15:47:37;31.10;66.00
5264;DHT22;2654;47.958;13.614;2022-07-18T15:50:05;30.90;65.10
5264;DHT22;2654;47.958;13.614;2022-07-18T15:52:33;30.90;64.90
5264;DHT22;2654;47.958;13.614;2022-07-18T15:55:05;30.90;64.50
5264;DHT22;2654;47.958;13.614;2022-07-18T15:57:32;30.90;64.70
5264;DHT22;2654;47.958;13.614;2022-07-18T16:00:00;30.70;64.10
5264;DHT22;2654;47.958;13.614;2022-07-18T16:02:28;30.80;64.50
5264;DHT22;2654;47.958;13.614;2022-07-18T16:04:55;31.00;65.50
5264;DHT22;2654;47.958;13.614;2022-07-18T16:07:23;30.80;64.50